createdAt,value
2017-08-22T00:01:01.931Z,94.90
2017-08-22T00:03:35.241Z,94.50
2017-08-22T00:06:02.786Z,95.00
2017-08-22T00:08:30.299Z,94.70
2017-08-22T00:10:57.849Z,93.70
2017-08-22T00:13:25.361Z,93.20
2017-08-22T00:15:52.894Z,93.60
2017-08-22T00:18:20.415Z,94.00
2017-08-22T00:20:47.951Z,94.50
2017-08-22T00:23:15.471Z,94.70
2017-08-22T00:25:42.991Z,94.90
2017-08-22T00:28:10.535Z,95.30
2017-08-22T00:30:38.055Z,95.40
2017-08-22T00:33:05.599Z,95.10
2017-08-22T00:35:33.114Z,95.20
2017-08-22T00:38:00.642Z,95.60
2017-08-22T00:40:28.191Z,95.70
2017-08-22T00:42:55.722Z,95.70
2017-08-22T00:45:23.244Z,96.00
2017-08-22T00:47:50.782Z,95.70
2017-08-22T00:50:18.302Z,95.40
2017-08-22T00:52:45.842Z,95.10
2017-08-22T00:55:14.142Z,95.30
2017-08-22T00:57:41.682Z,95.30
2017-08-22T01:00:09.197Z,95.40
2017-08-22T01:02:36.714Z,95.50
2017-08-22T01:05:04.256Z,95.70
2017-08-22T01:07:31.771Z,96.10
2017-08-22T01:09:59.301Z,96.00
2017-08-22T01:12:26.819Z,95.80
2017-08-22T01:14:54.379Z,96.00
2017-08-22T01:17:21.905Z,96.20
2017-08-22T01:19:49.443Z,96.40
2017-08-22T01:22:16.962Z,96.10
2017-08-22T01:24:44.506Z,96.10
2017-08-22T01:27:12.018Z,96.10
2017-08-22T01:29:39.535Z,96.10
2017-08-22T01:32:07.076Z,95.90
2017-08-22T01:34:34.582Z,95.70
2017-08-22T01:37:02.115Z,95.90
2017-08-22T01:39:29.638Z,95.80
2017-08-22T01:41:57.174Z,96.00
2017-08-22T01:44:24.695Z,96.10
2017-08-22T01:46:52.232Z,96.20
2017-08-22T01:49:19.755Z,96.40
2017-08-22T01:51:47.295Z,96.20
2017-08-22T01:54:14.810Z,96.10
2017-08-22T01:56:42.360Z,95.80
2017-08-22T01:59:09.877Z,95.60
2017-08-22T02:01:37.398Z,95.70
2017-08-22T02:04:04.938Z,95.80
2017-08-22T02:06:32.455Z,96.10
2017-08-22T02:08:59.995Z,96.10
2017-08-22T02:11:27.515Z,95.80
2017-08-22T02:13:55.053Z,95.80
2017-08-22T02:16:22.569Z,96.00
2017-08-22T02:18:50.105Z,96.00
2017-08-22T02:21:17.619Z,96.10
2017-08-22T02:23:45.155Z,96.40
2017-08-22T02:26:12.675Z,96.60
2017-08-22T02:28:40.218Z,96.70
2017-08-22T02:31:07.739Z,96.50
2017-08-22T02:33:35.284Z,96.20
2017-08-22T02:36:02.798Z,96.00
2017-08-22T02:38:30.311Z,96.20
2017-08-22T02:40:57.846Z,96.40
2017-08-22T02:43:25.367Z,96.30
2017-08-22T02:45:52.904Z,96.50
2017-08-22T02:48:20.430Z,96.60
2017-08-22T02:50:47.970Z,96.50
2017-08-22T02:53:15.487Z,96.60
2017-08-22T02:55:43.033Z,96.60
2017-08-22T02:58:10.554Z,96.90
2017-08-22T03:00:38.094Z,96.40
2017-08-22T03:03:05.614Z,96.40
2017-08-22T03:05:33.150Z,96.80
2017-08-22T03:08:00.669Z,97.30
2017-08-22T03:10:28.211Z,97.30
2017-08-22T03:12:55.726Z,97.10
2017-08-22T03:15:23.246Z,96.90
2017-08-22T03:17:50.783Z,96.80
2017-08-22T03:20:18.303Z,97.30
2017-08-22T03:22:45.843Z,97.60
2017-08-22T03:25:13.361Z,97.80
2017-08-22T03:27:40.898Z,97.70
2017-08-22T03:30:08.423Z,97.50
2017-08-22T03:32:35.962Z,97.50
2017-08-22T03:35:03.483Z,97.50
2017-08-22T03:37:31.014Z,97.30
2017-08-22T03:39:58.539Z,97.20
2017-08-22T03:42:26.079Z,97.30
2017-08-22T03:44:53.604Z,97.30
2017-08-22T03:47:21.137Z,97.40
2017-08-22T03:49:55.106Z,97.30
2017-08-22T03:52:22.656Z,97.60
2017-08-22T03:54:50.179Z,97.00
2017-08-22T03:57:17.695Z,97.00
2017-08-22T03:59:45.232Z,96.30
2017-08-22T04:02:12.755Z,96.50
2017-08-22T04:04:40.317Z,96.60
2017-08-22T04:07:07.835Z,97.00
2017-08-22T04:09:35.387Z,97.60
2017-08-22T04:12:02.903Z,97.30
2017-08-22T04:14:30.435Z,97.50
2017-08-22T04:16:57.948Z,97.50
2017-08-22T04:19:25.483Z,97.30
2017-08-22T04:21:53.011Z,97.30
2017-08-22T04:24:20.550Z,97.50
2017-08-22T04:26:48.075Z,97.70
2017-08-22T04:29:15.610Z,97.70
2017-08-22T04:31:43.131Z,97.60
2017-08-22T04:34:10.666Z,97.40
2017-08-22T04:36:38.182Z,97.40
2017-08-22T04:39:05.699Z,97.20
2017-08-22T04:41:33.234Z,97.10
2017-08-22T04:44:00.758Z,97.30
2017-08-22T04:46:28.298Z,97.20
2017-08-22T04:48:55.818Z,97.40
2017-08-22T04:51:23.355Z,97.60
2017-08-22T04:53:50.871Z,98.00
2017-08-22T04:56:18.403Z,98.00
2017-08-22T04:58:45.918Z,97.20
2017-08-22T05:01:13.459Z,96.90
2017-08-22T05:03:40.990Z,97.00
2017-08-22T05:06:08.545Z,97.10
2017-08-22T05:08:36.070Z,97.20
2017-08-22T05:11:03.607Z,97.20
2017-08-22T05:13:31.130Z,97.10
2017-08-22T05:15:58.679Z,97.20
2017-08-22T05:18:26.198Z,97.00
2017-08-22T05:20:53.721Z,97.10
2017-08-22T05:23:21.277Z,97.20
2017-08-22T05:25:49.368Z,97.60
2017-08-22T05:28:16.906Z,97.70
2017-08-22T05:30:44.535Z,97.50
2017-08-22T05:33:12.086Z,97.10
2017-08-22T05:35:39.619Z,96.80
2017-08-22T05:38:07.164Z,96.60
2017-08-22T05:40:34.682Z,96.60
2017-08-22T05:43:02.224Z,96.40
2017-08-22T05:45:29.966Z,95.80
2017-08-22T05:47:57.560Z,95.30
2017-08-22T05:50:25.080Z,94.40
2017-08-22T05:52:52.655Z,93.20
2017-08-22T05:55:20.191Z,92.50
2017-08-22T05:57:51.446Z,91.80
2017-08-22T06:00:19.811Z,92.20
2017-08-22T06:02:47.334Z,92.10
2017-08-22T06:05:14.874Z,92.40
2017-08-22T06:07:42.391Z,92.60
2017-08-22T06:10:09.951Z,93.20
2017-08-22T06:12:37.471Z,93.10
2017-08-22T06:15:05.011Z,92.80
2017-08-22T06:17:32.541Z,92.40
2017-08-22T06:20:00.078Z,91.00
2017-08-22T06:22:27.611Z,88.40
2017-08-22T06:24:55.161Z,88.00
2017-08-22T06:27:22.686Z,87.40
2017-08-22T06:29:50.236Z,86.40
2017-08-22T06:32:17.754Z,82.00
2017-08-22T06:34:45.280Z,79.40
2017-08-22T06:37:12.824Z,79.20
2017-08-22T06:39:40.342Z,79.20
2017-08-22T06:42:07.880Z,80.00
2017-08-22T06:44:35.407Z,80.30
2017-08-22T06:47:02.956Z,80.20
2017-08-22T06:49:30.523Z,79.80
2017-08-22T06:51:58.061Z,79.10
2017-08-22T06:54:25.592Z,77.80
2017-08-22T06:56:53.139Z,78.50
2017-08-22T06:59:20.666Z,77.90
2017-08-22T07:01:48.220Z,75.80
2017-08-22T07:04:15.735Z,73.20
2017-08-22T07:06:43.259Z,72.20
2017-08-22T07:09:10.801Z,70.80
2017-08-22T07:11:38.340Z,72.70
2017-08-22T07:14:05.887Z,73.00
2017-08-22T07:16:33.416Z,74.60
2017-08-22T07:19:00.955Z,76.50
2017-08-22T07:21:28.479Z,75.60
2017-08-22T07:23:56.026Z,74.50
2017-08-22T07:26:23.548Z,74.40
2017-08-22T07:28:51.090Z,74.50
2017-08-22T07:31:18.618Z,76.00
2017-08-22T07:33:46.159Z,74.60
2017-08-22T07:36:13.699Z,76.40
2017-08-22T07:38:41.252Z,77.90
2017-08-22T07:41:08.771Z,78.50
2017-08-22T07:43:36.295Z,79.30
2017-08-22T07:46:03.860Z,78.30
2017-08-22T07:48:31.392Z,79.40
2017-08-22T07:50:58.933Z,80.40
2017-08-22T07:53:26.459Z,79.50
2017-08-22T07:55:54.002Z,78.80
2017-08-22T07:58:22.035Z,78.60
2017-08-22T08:00:49.578Z,77.90
2017-08-22T08:03:17.102Z,77.10
2017-08-22T08:05:44.642Z,75.30
2017-08-22T08:08:12.159Z,74.00
2017-08-22T08:10:39.711Z,75.00
2017-08-22T08:13:07.237Z,75.00
2017-08-22T08:15:34.771Z,74.20
2017-08-22T08:18:02.311Z,73.30
2017-08-22T08:20:29.830Z,72.70
2017-08-22T08:22:57.370Z,73.10
2017-08-22T08:25:24.895Z,72.10
2017-08-22T08:27:52.440Z,70.50
2017-08-22T08:30:19.967Z,71.10
2017-08-22T08:32:47.510Z,69.80
2017-08-22T08:35:15.031Z,71.00
2017-08-22T08:37:42.642Z,71.10
2017-08-22T08:40:10.163Z,71.00
2017-08-22T08:42:37.730Z,69.90
2017-08-22T08:45:05.255Z,70.30
2017-08-22T08:47:32.798Z,68.80
2017-08-22T08:50:00.319Z,70.20
2017-08-22T08:52:27.859Z,66.80
2017-08-22T08:54:55.382Z,70.10
2017-08-22T08:57:22.932Z,68.50
2017-08-22T08:59:50.457Z,67.20
2017-08-22T09:02:17.982Z,63.30
2017-08-22T09:04:45.547Z,61.50
2017-08-22T09:07:13.075Z,62.00
2017-08-22T09:09:40.623Z,60.30
2017-08-22T09:12:08.142Z,59.90
2017-08-22T09:14:35.691Z,58.40
2017-08-22T09:17:03.223Z,59.60
2017-08-22T09:19:30.778Z,59.40
2017-08-22T09:21:58.300Z,58.20
2017-08-22T09:24:25.849Z,56.80
2017-08-22T09:26:53.378Z,56.70
2017-08-22T09:29:20.921Z,52.80
2017-08-22T09:31:48.446Z,52.80
2017-08-22T09:34:15.998Z,51.10
2017-08-22T09:36:43.525Z,50.20
2017-08-22T09:39:11.083Z,48.10
2017-08-22T09:41:38.603Z,48.30
2017-08-22T09:44:06.136Z,47.50
2017-08-22T09:46:33.694Z,49.10
2017-08-22T09:49:01.227Z,47.40
2017-08-22T09:51:28.772Z,46.30
2017-08-22T09:53:56.299Z,45.50
2017-08-22T09:56:23.843Z,45.30
2017-08-22T09:58:51.359Z,44.30
2017-08-22T10:01:19.008Z,43.00
2017-08-22T10:03:46.565Z,43.60
2017-08-22T10:06:14.119Z,44.30
2017-08-22T10:08:41.647Z,41.90
2017-08-22T10:11:09.190Z,41.50
2017-08-22T10:13:36.734Z,41.10
2017-08-22T10:16:04.266Z,42.80
2017-08-22T10:19:08.002Z,42.70
2017-08-22T10:21:35.526Z,42.00
2017-08-22T10:24:03.067Z,40.50
2017-08-22T10:26:31.356Z,42.10
2017-08-22T10:28:58.903Z,42.00
2017-08-22T10:31:26.426Z,42.70
2017-08-22T10:33:53.970Z,44.70
2017-08-22T10:36:21.490Z,45.80
2017-08-22T10:38:49.038Z,43.90
2017-08-22T10:41:16.563Z,42.80
2017-08-22T10:43:44.108Z,42.30
2017-08-22T10:46:11.631Z,44.10
2017-08-22T10:48:39.170Z,43.40
2017-08-22T10:51:06.708Z,44.00
2017-08-22T10:53:34.230Z,41.70
2017-08-22T10:56:01.770Z,40.70
2017-08-22T10:58:29.290Z,43.20
2017-08-22T11:00:56.838Z,41.90
2017-08-22T11:03:24.370Z,43.60
2017-08-22T11:05:51.911Z,41.30
2017-08-22T11:08:19.438Z,41.80
2017-08-22T11:10:46.978Z,40.80
2017-08-22T11:13:14.500Z,40.40
2017-08-22T11:15:42.059Z,42.00
2017-08-22T11:18:09.575Z,42.50
2017-08-22T11:20:37.118Z,42.20
2017-08-22T11:23:04.643Z,40.20
2017-08-22T11:25:32.186Z,39.80
2017-08-22T11:27:59.712Z,37.80
2017-08-22T11:30:27.239Z,40.90
2017-08-22T11:32:54.783Z,41.00
2017-08-22T11:35:22.307Z,43.50
2017-08-22T11:37:49.843Z,42.50
2017-08-22T11:40:17.365Z,41.60
2017-08-22T11:42:44.904Z,43.00
2017-08-22T11:45:12.427Z,46.00
2017-08-22T11:47:39.970Z,42.80
2017-08-22T11:50:07.487Z,42.10
2017-08-22T11:52:35.038Z,42.30
2017-08-22T11:55:02.559Z,44.30
2017-08-22T11:57:30.107Z,43.40
2017-08-22T11:59:57.630Z,46.00
2017-08-22T12:02:25.166Z,44.60
2017-08-22T12:04:52.691Z,44.20
2017-08-22T12:07:20.252Z,44.90
2017-08-22T12:09:47.772Z,44.90
2017-08-22T12:12:15.307Z,46.40
2017-08-22T12:14:42.846Z,44.90
2017-08-22T12:17:10.369Z,42.90
2017-08-22T12:19:37.916Z,41.40
2017-08-22T12:22:05.452Z,39.40
2017-08-22T12:24:34.270Z,40.40
2017-08-22T12:27:01.794Z,41.40
2017-08-22T12:29:29.339Z,40.20
2017-08-22T12:31:56.923Z,39.20
2017-08-22T12:34:24.584Z,39.80
2017-08-22T12:36:52.158Z,40.30
2017-08-22T12:39:19.734Z,41.40
2017-08-22T12:41:47.297Z,40.70
2017-08-22T12:44:14.865Z,39.80
2017-08-22T12:46:42.424Z,38.40
2017-08-22T12:49:09.979Z,39.20
2017-08-22T12:51:37.578Z,39.90
2017-08-22T12:54:05.147Z,42.30
2017-08-22T12:56:32.756Z,40.40
2017-08-22T12:59:00.328Z,40.10
2017-08-22T13:01:27.868Z,41.90
2017-08-22T13:03:55.395Z,38.50
2017-08-22T13:06:22.940Z,40.20
2017-08-22T13:08:50.467Z,41.20
2017-08-22T13:11:17.988Z,38.80
2017-08-22T13:13:45.532Z,38.80
2017-08-22T13:16:13.067Z,40.30
2017-08-22T13:18:40.614Z,41.60
2017-08-22T13:21:08.136Z,41.20
2017-08-22T13:23:35.675Z,40.10
2017-08-22T13:26:03.205Z,40.20
2017-08-22T13:28:30.747Z,39.70
2017-08-22T13:30:58.262Z,39.30
2017-08-22T13:33:25.803Z,39.40
2017-08-22T13:35:53.328Z,39.50
2017-08-22T13:38:20.867Z,40.20
2017-08-22T13:40:48.487Z,40.40
2017-08-22T13:43:16.010Z,41.50
2017-08-22T13:45:43.551Z,40.00
2017-08-22T13:48:11.070Z,39.70
2017-08-22T13:50:38.606Z,39.20
2017-08-22T13:53:06.128Z,38.10
2017-08-22T13:55:33.676Z,37.10
2017-08-22T13:58:01.214Z,39.10
2017-08-22T14:00:28.750Z,40.10
2017-08-22T14:02:56.322Z,39.50
2017-08-22T14:05:23.871Z,39.60
2017-08-22T14:07:51.395Z,39.50
2017-08-22T14:10:18.935Z,39.30
2017-08-22T14:12:46.458Z,38.00
2017-08-22T14:15:14.015Z,38.00
2017-08-22T14:17:41.533Z,38.00
2017-08-22T14:20:09.130Z,38.00
2017-08-22T14:22:36.739Z,38.00
2017-08-22T14:25:04.267Z,36.90
2017-08-22T14:27:31.819Z,38.00
2017-08-22T14:29:59.346Z,39.00
2017-08-22T14:32:26.971Z,38.70
2017-08-22T14:34:54.486Z,40.20
2017-08-22T14:37:22.026Z,39.30
2017-08-22T14:39:49.575Z,40.90
2017-08-22T14:42:17.111Z,42.50
2017-08-22T14:44:44.633Z,47.00
2017-08-22T14:47:12.155Z,42.10
2017-08-22T14:49:39.910Z,44.00
2017-08-22T14:52:07.438Z,45.30
2017-08-22T14:54:34.983Z,46.30
2017-08-22T14:57:02.520Z,45.80
2017-08-22T14:59:30.062Z,44.80
2017-08-22T15:01:57.578Z,43.40
2017-08-22T15:04:25.114Z,45.00
2017-08-22T15:06:52.636Z,45.10
2017-08-22T15:09:20.179Z,44.50
2017-08-22T15:11:47.700Z,42.80
2017-08-22T15:14:15.238Z,42.80
2017-08-22T15:16:42.757Z,41.80
2017-08-22T15:19:10.290Z,41.50
2017-08-22T15:21:37.809Z,40.80
2017-08-22T15:24:05.330Z,41.30
2017-08-22T15:26:32.868Z,41.10
2017-08-22T15:29:00.382Z,41.90
2017-08-22T15:31:27.921Z,42.50
2017-08-22T15:33:55.446Z,42.30
2017-08-22T15:36:22.987Z,42.70
2017-08-22T15:38:50.515Z,41.60
2017-08-22T15:41:18.058Z,43.10
2017-08-22T15:43:45.578Z,42.80
2017-08-22T15:46:13.116Z,41.60
2017-08-22T15:48:40.644Z,42.70
2017-08-22T15:51:08.191Z,43.20
2017-08-22T15:53:35.715Z,43.30
2017-08-22T15:56:03.250Z,43.30
2017-08-22T15:58:30.774Z,43.70
2017-08-22T16:00:58.315Z,44.80
2017-08-22T16:03:25.831Z,44.70
2017-08-22T16:05:53.351Z,44.00
2017-08-22T16:08:20.896Z,45.10
2017-08-22T16:10:48.418Z,45.20
2017-08-22T16:13:15.962Z,45.70
2017-08-22T16:15:43.482Z,46.00
2017-08-22T16:18:11.026Z,46.20
2017-08-22T16:20:38.543Z,46.80
2017-08-22T16:23:06.082Z,46.10
2017-08-22T16:25:33.598Z,46.20
2017-08-22T16:28:01.150Z,46.20
2017-08-22T16:30:28.667Z,46.80
2017-08-22T16:32:56.210Z,47.20
2017-08-22T16:35:23.758Z,47.60
2017-08-22T16:37:51.288Z,47.80
2017-08-22T16:40:18.826Z,47.90
2017-08-22T16:42:46.346Z,47.70
2017-08-22T16:45:13.882Z,47.50
2017-08-22T16:47:41.407Z,47.90
2017-08-22T16:50:08.942Z,49.70
2017-08-22T16:52:36.507Z,49.20
2017-08-22T16:55:04.046Z,49.00
2017-08-22T16:57:31.567Z,50.60
2017-08-22T16:59:59.106Z,50.00
2017-08-22T17:02:26.623Z,50.10
2017-08-22T17:04:54.170Z,50.30
2017-08-22T17:07:21.698Z,51.20
2017-08-22T17:09:49.222Z,51.60
2017-08-22T17:12:16.767Z,51.60
2017-08-22T17:14:44.291Z,52.70
2017-08-22T17:17:11.834Z,54.10
2017-08-22T17:19:39.356Z,57.40
2017-08-22T17:22:06.895Z,59.00
2017-08-22T17:24:34.415Z,59.80
2017-08-22T17:27:01.959Z,59.50
2017-08-22T17:29:29.474Z,59.10
2017-08-22T17:31:57.014Z,57.00
2017-08-22T17:34:24.537Z,55.50
2017-08-22T17:36:52.079Z,60.80
2017-08-22T17:39:19.592Z,66.10
2017-08-22T17:41:47.131Z,67.40
2017-08-22T17:44:14.651Z,67.70
2017-08-22T17:46:42.189Z,69.10
2017-08-22T17:49:09.716Z,69.70
2017-08-22T17:51:37.275Z,72.20
2017-08-22T17:54:04.799Z,74.70
2017-08-22T17:56:32.324Z,76.00
2017-08-22T17:58:59.855Z,77.10
2017-08-22T18:01:27.386Z,77.40
2017-08-22T18:03:54.930Z,76.70
2017-08-22T18:06:22.458Z,78.40
2017-08-22T18:08:50.002Z,79.50
2017-08-22T18:11:17.522Z,79.60
2017-08-22T18:13:45.062Z,79.40
2017-08-22T18:16:12.586Z,79.90
2017-08-22T18:18:40.128Z,78.70
2017-08-22T18:21:07.652Z,79.00
2017-08-22T18:23:35.182Z,80.40
2017-08-22T18:26:02.701Z,81.70
2017-08-22T18:28:30.253Z,83.20
2017-08-22T18:30:57.780Z,82.30
2017-08-22T18:33:25.295Z,82.10
2017-08-22T18:35:52.835Z,81.80
2017-08-22T18:38:20.357Z,81.30
2017-08-22T18:40:47.903Z,82.00
2017-08-22T18:43:15.422Z,82.40
2017-08-22T18:45:42.958Z,83.40
2017-08-22T18:48:10.478Z,83.80
2017-08-22T18:50:38.023Z,85.50
2017-08-22T18:53:05.548Z,86.00
2017-08-22T18:55:33.088Z,85.80
2017-08-22T18:58:00.599Z,85.80
2017-08-22T19:00:28.145Z,85.50
2017-08-22T19:02:55.683Z,85.40
2017-08-22T19:05:23.229Z,85.30
2017-08-22T19:07:50.754Z,85.60
2017-08-22T19:10:18.314Z,86.00
2017-08-22T19:12:45.838Z,85.90
2017-08-22T19:15:13.353Z,85.80
2017-08-22T19:17:40.903Z,85.70
2017-08-22T19:20:08.418Z,85.60
2017-08-22T19:22:35.954Z,85.60
2017-08-22T19:25:03.480Z,85.60
2017-08-22T19:27:31.015Z,85.40
2017-08-22T19:29:58.548Z,85.70
2017-08-22T19:32:26.097Z,86.50
2017-08-22T19:34:53.626Z,87.30
2017-08-22T19:37:21.164Z,87.70
2017-08-22T19:39:48.694Z,87.80
2017-08-22T19:42:16.243Z,87.00
2017-08-22T19:44:43.763Z,87.20
2017-08-22T19:47:11.287Z,87.60
2017-08-22T19:49:38.827Z,87.20
2017-08-22T19:52:06.347Z,87.20
2017-08-22T19:54:33.887Z,86.80
2017-08-22T19:57:01.411Z,85.80
2017-08-22T19:59:28.946Z,85.30
2017-08-22T20:01:56.727Z,86.60
2017-08-22T20:04:24.327Z,87.30
2017-08-22T20:06:51.850Z,88.00
2017-08-22T20:09:19.386Z,88.60
2017-08-22T20:11:46.907Z,88.60
2017-08-22T20:14:14.451Z,88.50
2017-08-22T20:16:41.983Z,88.80
2017-08-22T20:19:09.540Z,89.20
2017-08-22T20:21:37.066Z,89.70
2017-08-22T20:24:04.595Z,90.00
2017-08-22T20:26:32.138Z,89.90
2017-08-22T20:28:59.669Z,89.70
2017-08-22T20:31:27.486Z,89.90
2017-08-22T20:33:55.635Z,90.00
2017-08-22T20:36:26.571Z,89.80
2017-08-22T20:38:54.337Z,89.70
2017-08-22T20:41:22.790Z,89.60
2017-08-22T20:43:50.790Z,89.60
2017-08-22T20:46:18.914Z,90.10
2017-08-22T20:48:46.970Z,90.50
2017-08-22T20:51:14.568Z,90.60
2017-08-22T20:53:42.087Z,90.90
2017-08-22T20:56:09.630Z,90.70
2017-08-22T20:58:37.195Z,91.00
2017-08-22T21:01:04.739Z,91.00
2017-08-22T21:03:32.260Z,90.90
2017-08-22T21:05:59.779Z,90.70
2017-08-22T21:08:27.322Z,90.60
2017-08-22T21:10:54.851Z,90.60
2017-08-22T21:13:22.392Z,90.30
2017-08-22T21:15:49.906Z,90.20
2017-08-22T21:18:17.439Z,90.40
2017-08-22T21:20:44.961Z,90.60
2017-08-22T21:23:12.502Z,90.40
2017-08-22T21:25:40.026Z,90.80
2017-08-22T21:28:07.567Z,91.20
2017-08-22T21:30:35.086Z,91.00
2017-08-22T21:33:02.634Z,91.10
2017-08-22T21:35:30.150Z,90.90
2017-08-22T21:37:57.711Z,90.80
2017-08-22T21:40:25.259Z,90.70
2017-08-22T21:42:52.783Z,91.40
2017-08-22T21:45:20.325Z,91.20
2017-08-22T21:47:47.843Z,91.20
2017-08-22T21:50:15.382Z,91.30
2017-08-22T21:52:42.903Z,91.80
2017-08-22T21:55:10.448Z,92.10
2017-08-22T21:57:37.965Z,92.20
2017-08-22T22:00:05.509Z,92.20
2017-08-22T22:02:33.037Z,92.50
2017-08-22T22:05:00.587Z,91.80
2017-08-22T22:07:28.114Z,91.40
2017-08-22T22:09:55.636Z,91.00
2017-08-22T22:12:23.176Z,91.20
2017-08-22T22:14:50.695Z,91.60
2017-08-22T22:17:18.231Z,91.50
2017-08-22T22:19:45.750Z,91.40
2017-08-22T22:22:13.291Z,91.10
2017-08-22T22:24:40.810Z,91.00
2017-08-22T22:27:08.355Z,90.30
2017-08-22T22:29:35.880Z,90.40
2017-08-22T22:32:03.417Z,90.50
2017-08-22T22:34:30.940Z,90.60
2017-08-22T22:36:58.475Z,91.30
2017-08-22T22:39:25.993Z,91.80
2017-08-22T22:41:53.555Z,91.70
2017-08-22T22:44:21.079Z,91.70
2017-08-22T22:46:48.602Z,91.80
2017-08-22T22:49:16.133Z,91.80
2017-08-22T22:51:43.661Z,91.80
2017-08-22T22:54:11.206Z,91.80
2017-08-22T22:56:38.731Z,92.10
2017-08-22T22:59:06.272Z,92.40
2017-08-22T23:01:33.791Z,92.50
2017-08-22T23:04:01.336Z,92.40
2017-08-22T23:06:28.863Z,92.40
2017-08-22T23:08:56.401Z,92.20
2017-08-22T23:11:23.921Z,92.40
2017-08-22T23:13:51.488Z,92.50
2017-08-22T23:16:19.008Z,92.50
2017-08-22T23:18:46.555Z,92.40
2017-08-22T23:21:14.082Z,92.50
2017-08-22T23:23:41.606Z,92.40
2017-08-22T23:26:09.143Z,92.30
2017-08-22T23:28:36.668Z,92.50
2017-08-22T23:31:04.202Z,92.60
2017-08-22T23:33:31.722Z,93.30
2017-08-22T23:35:59.259Z,92.90
2017-08-22T23:38:26.778Z,92.80
2017-08-22T23:40:54.319Z,92.80
2017-08-22T23:43:21.841Z,93.00
2017-08-22T23:45:49.374Z,93.30
2017-08-22T23:48:16.890Z,93.50
2017-08-22T23:50:44.431Z,93.50
2017-08-22T23:53:11.950Z,93.70
2017-08-22T23:55:39.501Z,93.80
2017-08-22T23:58:07.022Z,94.00
